KISO/ISO METAR and TAF weather

Enter ICAO airport designator
Station Type Date Time Source
KISO METAR 2019/02/22 21:56 UTC NOAA

KISO 222156Z 06009KT 5SM -DZ OVC007 07/07 A3035


Station Type Date Time Source
KISO Decoded METAR 2019/02/22 21:56 UTC NOAA

Kinston, Kinston Regional Jetport at Stallings Field, NC, United States (KISO) 35-20N 077-37W
Feb 22, 2019 - 04:56 PM EST / 2019.02.22 2156 UTC
Wind: from the ENE (060 degrees) at 10 MPH (9 KT):0
Visibility: 5 mile(s):0
Sky conditions: overcast
Weather: light drizzle
Temperature: 44 F (7 C)
Dew Point: 44 F (7 C)
Relative Humidity: 100%
Pressure (altimeter): 30.35 in. Hg (1027 hPa)
ob: KISO 222156Z 06009KT 5SM -DZ OVC007 07/07 A3035
cycle: 22

Station Type Date Time Source
KISO TAF 2019/02/22 18:54 UTC NOAA

TAF KISO 221751Z 2218/2318 05009G14KT P6SM -RA SCT015 OVC035
TEMPO 2218/2221 BKN008
FM222100 05009G16KT 6SM -RA OVC007
FM230500 04009G14KT 5SM -RA OVC004
FM231200 04005KT 6SM -RA OVC007
AMD LTD TO CLD VIS AND WIND


Example: see airport list